Shiloh, Tennessee
Current Conditions -  °F | °C
As of 8:15 AM on Sunday 21 Dec 2014 (Local Time) from KSNH Reporting Station
Clear Clear  
Wind Chill: 28°   Ceiling: Unl
Heat Index: 28°   Visibility: 10mi
Dew Point: 27°   Wind: 0mph
Humidity: 93%   Direction: NA
Pressure: 30.22"   Gusts: NA
Location:  35.11°N, 88.36°W
Report Text: KSNH 211415Z AUTO 00000KT 10SM CLR M02/M03 A3022 RMK
Loading
Personal Weather Stations






























Interactive Weather Map New forecast layout! Learn more

10-Day Weather Forecast

Advertisements
Track Severe Weather on mobile